logo dgac
Lunes 22 de Abril del 2019
Buscar por aerodromo o helipuerto
Ingrese nombre de aeródromo, localidad o designador OACI:

Aeródromo: La Independencia (SCRG)

Ubicación: Rancagua, VI Región, Chile (34º 10' 30'' S, 70º 46' 32'' W) Ver ubicación en el mapa

Pistas

Orientación Dimensión Pendiente Superficie Resistencia APCH THR RWY PAPI
03/21 1603 X 23 m 0,21 ASPH 22.727 kg AUW/1 No No No
Horas de operación HJ
Elevación 491m/ 1610 FT ft
Otra Información Adm :DGAC
Uso : PUB
TEL DGAC 224363133 CEL 991581866

Ubicado a 3 km W de Plaza de Armas de la Comuna de Rancagua

Otra información ver AIP-Chile Volumen I AD 3.9-17.1-R
CCCM/FCCV Descargar
andera de Chile
Mapa de La Independencia (SCRG)

Último METAR

METAR SCRG 221700Z 23005KT 9000 NSC 18/09 Q1016

Último TAF

TAF SCRG 221046Z 2212/2224 21004KT 6000 NSC TX20/2218Z TN10/2212Z TEMPO 2212/2215 3000 BR BECMG 2216/2218 22008KT CAVOK

Últimas fotos cámaras

Imagen aerodromo La Independencia (SCRG) Norte tomada el 22-04-2019 12:54:57 Imagen aerodromo La Independencia (SCRG) Sur tomada el 22-04-2019 12:55:24

Último NOTAM

C1257/19 NOTAMR C1041/19 Q)SCEZ/QFALT/IV/NBO/A/000/999/3410S07047W005 A)SCRG B)1904122147 C)PERM D)DLY BTN FCCV TIL 1130 E)AD CTN, OPR ACFT DE EJERCITO DE CHILE

LLegadas a La Independencia (SCRG)

En vuelo

Vuelo Procedencia Hora Despegue Local Hora Arribo Local

Salidas de La Independencia (SCRG)

En vuelo

Vuelo Hacia Hora Despegue Local Hora Arribo Local